Time;durP1;ratioP1;P1;durP2;ratioP2;P2;SDS_P1;SDS_P2;PMS_P1;PMS_P2;Temp;Humidity;BMP_temperature;BMP_pressure;BME280_temperature;BME280_humidity;BME280_pressure;Samples;Min_cycle;Max_cycle;Signal;HPM_P1;HPM_P2
2022/05/15 00:01:50;;;;;;;3.75;1.35;;;16.30;98.70;;;;;;5109526;28;20398;-68
2022/05/15 00:04:15;;;;;;;4.80;1.52;;;16.20;98.70;;;;;;5096542;28;20126;-68
2022/05/15 00:06:41;;;;;;;6.90;1.83;;;16.00;99.10;;;;;;5081965;28;20041;-68
2022/05/15 00:09:07;;;;;;;4.75;1.88;;;15.80;99.50;;;;;;5075721;28;20044;-68
2022/05/15 00:11:33;;;;;;;8.02;1.48;;;15.70;99.80;;;;;;5075620;28;20053;-68
2022/05/15 00:13:58;;;;;;;10.52;1.92;;;15.70;99.70;;;;;;5075515;28;20708;-68
2022/05/15 00:16:25;;;;;;;3.67;1.40;;;15.70;99.60;;;;;;5075434;28;20093;-68
2022/05/15 00:18:51;;;;;;;4.65;1.50;;;15.80;99.70;;;;;;5075465;28;20064;-68
2022/05/15 00:21:18;;;;;;;6.88;1.67;;;15.60;99.80;;;;;;5075221;28;20036;-68
2022/05/15 00:23:44;;;;;;;4.03;1.58;;;15.60;99.90;;;;;;5075276;28;20048;-68
2022/05/15 00:26:11;;;;;;;3.38;1.45;;;15.60;99.90;;;;;;5075279;28;20523;-68
2022/05/15 00:28:37;;;;;;;3.35;1.58;;;15.60;99.90;;;;;;5075201;28;20054;-68
2022/05/15 00:31:03;;;;;;;4.90;1.48;;;15.80;99.90;;;;;;5075143;28;20499;-68
2022/05/15 00:33:30;;;;;;;5.38;2.28;;;15.80;99.90;;;;;;5075077;28;20048;-68
2022/05/15 00:35:55;;;;;;;8.27;1.60;;;15.70;99.90;;;;;;5074952;28;20039;-68
2022/05/15 00:38:21;;;;;;;6.25;1.50;;;15.60;99.90;;;;;;5074955;28;20123;-68
2022/05/15 00:40:48;;;;;;;6.60;1.77;;;15.60;99.90;;;;;;5074962;28;20041;-68
2022/05/15 00:43:34;;;;;;;2.95;1.23;;;15.60;99.90;;;;;;5074875;28;20072;-68
2022/05/15 00:46:01;;;;;;;3.10;1.65;;;15.70;99.90;;;;;;5074624;28;20044;-68
2022/05/15 00:48:26;;;;;;;2.75;1.38;;;15.70;99.90;;;;;;5074673;28;20512;-68
2022/05/15 00:50:53;;;;;;;6.10;1.70;;;15.60;99.90;;;;;;5074331;28;20090;-68
2022/05/15 00:53:20;;;;;;;3.30;1.38;;;15.40;99.90;;;;;;5074620;28;20040;-68
2022/05/15 00:55:52;;;;;;;4.97;1.77;;;15.50;99.90;;;;;;5074503;28;20044;-68
2022/05/15 00:58:31;;;;;;;2.88;1.30;;;15.60;99.90;;;;;;5074649;28;20044;-68
2022/05/15 01:00:57;;;;;;;10.27;1.73;;;15.50;99.90;;;;;;5074586;28;20581;-68
2022/05/15 01:03:23;;;;;;;3.75;1.67;;;15.30;99.90;;;;;;5074596;28;20032;-68
2022/05/15 01:05:55;;;;;;;3.80;1.65;;;15.30;99.90;;;;;;5074531;28;20040;-68
2022/05/15 01:08:23;;;;;;;6.15;1.30;;;15.20;99.90;;;;;;5074491;28;20044;-68
2022/05/15 01:10:53;;;;;;;8.02;1.70;;;15.50;99.90;;;;;;5074443;28;20074;-68
2022/05/15 01:13:21;;;;;;;6.60;1.80;;;15.50;99.90;;;;;;5074317;28;20099;-68
2022/05/15 01:15:48;;;;;;;5.10;1.70;;;15.50;99.90;;;;;;5073246;28;20060;-68
2022/05/15 01:18:20;;;;;;;3.92;1.73;;;15.60;99.90;;;;;;5074280;28;20141;-68
2022/05/15 01:20:46;;;;;;;2.00;1.17;;;15.50;99.90;;;;;;5074109;28;20178;-68
2022/05/15 01:23:12;;;;;;;4.82;1.52;;;15.20;99.90;;;;;;5074276;28;20470;-68
2022/05/15 01:25:38;;;;;;;6.65;1.60;;;15.30;99.90;;;;;;5074172;28;20119;-68
2022/05/15 01:28:20;;;;;;;3.35;1.38;;;15.20;99.90;;;;;;5073991;28;20042;-68
2022/05/15 01:30:49;;;;;;;4.95;1.42;;;15.30;99.90;;;;;;5073805;28;20040;-68
2022/05/15 01:33:15;;;;;;;4.32;1.42;;;15.20;99.90;;;;;;5073880;28;20068;-68
2022/05/15 01:35:41;;;;;;;3.58;1.30;;;15.20;99.90;;;;;;5073860;28;20049;-68
2022/05/15 01:38:07;;;;;;;3.78;1.55;;;15.10;99.90;;;;;;5073731;28;20047;-68
2022/05/15 01:40:34;;;;;;;2.83;1.38;;;15.10;99.90;;;;;;5073805;28;20040;-68
2022/05/15 01:43:01;;;;;;;7.03;2.00;;;15.40;99.90;;;;;;5073719;28;20090;-68
2022/05/15 01:45:27;;;;;;;4.57;1.42;;;15.40;99.90;;;;;;5073536;28;20042;-68
2022/05/15 01:47:53;;;;;;;4.25;1.42;;;15.30;99.90;;;;;;5072952;28;20571;-68
2022/05/15 01:50:19;;;;;;;3.70;1.60;;;15.20;99.90;;;;;;5069962;28;20048;-68
2022/05/15 01:52:45;;;;;;;3.85;1.30;;;15.30;99.90;;;;;;5071803;28;20056;-68
2022/05/15 01:55:11;;;;;;;3.20;1.38;;;15.20;99.90;;;;;;5073731;28;20036;-68
2022/05/15 01:57:38;;;;;;;3.97;1.70;;;;;;;;;;5073636;28;20051;-68
2022/05/15 02:00:07;;;;;;;4.65;1.30;;;15.00;99.90;;;;;;5073541;28;20431;-68
2022/05/15 02:02:32;;;;;;;4.32;1.95;;;14.80;99.90;;;;;;5073196;28;20443;-68
2022/05/15 02:04:58;;;;;;;5.40;1.98;;;14.70;99.90;;;;;;5073189;28;20048;-68
2022/05/15 02:07:24;;;;;;;6.57;1.52;;;14.80;99.90;;;;;;5073284;28;20036;-68
2022/05/15 02:09:50;;;;;;;3.78;1.52;;;14.80;99.90;;;;;;5073389;28;20046;-68
2022/05/15 02:12:16;;;;;;;10.35;1.50;;;14.70;99.90;;;;;;5073331;28;20052;-68
2022/05/15 02:14:42;;;;;;;2.78;1.45;;;14.70;99.90;;;;;;5073309;28;20040;-68
2022/05/15 02:17:07;;;;;;;3.35;1.25;;;14.60;99.90;;;;;;5073352;28;20411;-68
2022/05/15 02:19:33;;;;;;;5.18;1.33;;;14.90;99.90;;;;;;5073244;28;20036;-68
2022/05/15 02:21:59;;;;;;;6.60;1.50;;;15.00;99.90;;;;;;5073190;28;20032;-68
2022/05/15 02:24:25;;;;;;;4.70;1.17;;;15.20;99.90;;;;;;5072889;28;20036;-68
2022/05/15 02:26:51;;;;;;;4.72;1.23;;;15.40;99.90;;;;;;5072619;28;20085;-68
2022/05/15 02:29:17;;;;;;;10.82;1.30;;;15.50;99.90;;;;;;5073074;28;20036;-68
2022/05/15 02:31:43;;;;;;;3.28;1.25;;;15.60;99.90;;;;;;5072855;28;20054;-68
2022/05/15 02:34:09;;;;;;;5.53;1.20;;;15.60;99.90;;;;;;5072503;28;20450;-68
2022/05/15 02:36:35;;;;;;;2.42;1.30;;;15.50;99.90;;;;;;5072862;28;20045;-68
2022/05/15 02:39:01;;;;;;;4.28;1.33;;;15.30;99.90;;;;;;5071826;28;20123;-68
2022/05/15 02:41:27;;;;;;;5.47;1.27;;;15.30;99.90;;;;;;5073007;28;20399;-68
2022/05/15 02:43:53;;;;;;;8.95;1.63;;;15.20;99.90;;;;;;5073002;28;20039;-68
2022/05/15 02:46:18;;;;;;;6.70;1.17;;;15.10;99.90;;;;;;5072971;28;20044;-68
2022/05/15 02:51:29;;;;;;;5.10;1.67;;;14.40;99.90;;;;;;5072708;28;20534;-68
2022/05/15 02:53:55;;;;;;;5.65;2.17;;;14.40;99.90;;;;;;5072559;28;20033;-68
2022/05/15 02:56:28;;;;;;;3.88;1.55;;;14.40;99.90;;;;;;5072798;28;20040;-68
2022/05/15 02:58:53;;;;;;;3.55;1.55;;;14.40;99.90;;;;;;5072401;28;20044;-68
2022/05/15 03:01:20;;;;;;;5.68;1.75;;;14.50;99.90;;;;;;5072584;28;20392;-68
2022/05/15 03:03:47;;;;;;;5.93;1.65;;;14.80;99.90;;;;;;5072753;28;20407;-68
2022/05/15 03:06:13;;;;;;;3.28;1.50;;;14.80;99.90;;;;;;5072481;28;20028;-68
2022/05/15 03:08:42;;;;;;;4.68;1.40;;;14.70;99.90;;;;;;5072284;28;20048;-68
2022/05/15 03:11:09;;;;;;;2.30;1.30;;;14.70;99.90;;;;;;5072204;28;20044;-68
2022/05/15 03:13:35;;;;;;;5.32;1.63;;;14.60;99.90;;;;;;5072464;28;20488;-68
2022/05/15 03:16:02;;;;;;;4.80;1.67;;;14.60;99.90;;;;;;5072396;28;20064;-68
2022/05/15 03:18:28;;;;;;;3.38;1.27;;;14.80;99.90;;;;;;5072626;28;20081;-68
2022/05/15 03:20:54;;;;;;;3.78;1.27;;;14.80;99.90;;;;;;5072703;28;20859;-68
2022/05/15 03:23:20;;;;;;;4.63;1.38;;;14.80;99.90;;;;;;5072606;28;20066;-68
2022/05/15 03:25:46;;;;;;;5.80;1.48;;;14.90;99.90;;;;;;5072557;28;20446;-68
2022/05/15 03:28:12;;;;;;;5.00;1.98;;;15.00;99.90;;;;;;5072598;28;20036;-68
2022/05/15 03:30:42;;;;;;;1.63;0.90;;;15.00;99.90;;;;;;5072692;28;20036;-68
2022/05/15 03:33:09;;;;;;;;;;;15.00;99.90;;;;;;5072876;28;20037;-68
2022/05/15 03:35:39;;;;;;;4.78;1.20;;;15.00;99.90;;;;;;5072167;28;19913;-68
2022/05/15 03:38:07;;;;;;;3.58;1.50;;;15.10;99.90;;;;;;5073328;28;20090;-68
2022/05/15 03:40:32;;;;;;;2.05;1.00;;;15.10;99.90;;;;;;5075992;28;20045;-68
2022/05/15 03:42:58;;;;;;;7.75;2.42;;;15.20;99.90;;;;;;5076120;28;20028;-68
2022/05/15 03:45:24;;;;;;;3.47;1.45;;;15.10;99.90;;;;;;5076177;28;20123;-68
2022/05/15 03:47:53;;;;;;;4.07;1.33;;;14.90;99.90;;;;;;5076239;28;20040;-68
2022/05/15 03:50:21;;;;;;;4.40;1.40;;;14.50;99.90;;;;;;5075932;28;20411;-68
2022/05/15 03:52:47;;;;;;;3.25;1.42;;;14.30;99.90;;;;;;5075421;28;20559;-67
2022/05/15 03:55:13;;;;;;;3.28;1.20;;;14.40;99.90;;;;;;5074547;28;20115;-68
2022/05/15 03:57:39;;;;;;;2.60;1.30;;;14.30;99.90;;;;;;5075614;28;20037;-68
2022/05/15 04:00:08;;;;;;;1.52;0.95;;;14.30;99.90;;;;;;5074498;28;20551;-68
2022/05/15 04:02:34;;;;;;;4.28;1.30;;;14.40;99.90;;;;;;5075701;28;20040;-68
2022/05/15 04:05:00;;;;;;;5.47;1.38;;;14.60;99.90;;;;;;5075638;28;20063;-68
2022/05/15 04:07:25;;;;;;;3.78;1.40;;;14.70;99.90;;;;;;5075669;28;20067;-68
2022/05/15 04:09:51;;;;;;;3.28;1.23;;;14.80;99.90;;;;;;5075647;28;20522;-68
2022/05/15 04:12:17;;;;;;;4.65;1.67;;;14.70;99.90;;;;;;5075611;28;20052;-68
2022/05/15 04:14:43;;;;;;;4.53;1.42;;;14.60;99.90;;;;;;5075486;28;20047;-68
2022/05/15 04:17:09;;;;;;;5.53;1.17;;;14.50;99.90;;;;;;5075424;28;20040;-68
2022/05/15 04:19:38;;;;;;;4.15;1.55;;;14.30;99.90;;;;;;5075508;28;20028;-68
2022/05/15 04:22:05;;;;;;;5.72;1.40;;;14.40;99.90;;;;;;5075423;28;20078;-68
2022/05/15 04:24:34;;;;;;;2.40;1.00;;;14.40;99.90;;;;;;5075585;28;20094;-68
2022/05/15 04:27:01;;;;;;;3.65;1.30;;;14.40;99.90;;;;;;5075353;28;20523;-68
2022/05/15 04:29:27;;;;;;;3.25;1.33;;;14.60;99.90;;;;;;5074894;28;20098;-68
2022/05/15 04:31:55;;;;;;;8.65;1.73;;;14.70;99.90;;;;;;5074907;28;20045;-68
2022/05/15 04:34:26;;;;;;;4.55;1.50;;;14.70;99.90;;;;;;5075079;28;20040;-68
2022/05/15 04:36:52;;;;;;;5.57;1.38;;;14.70;99.90;;;;;;5075150;28;20476;-68
2022/05/15 04:39:18;;;;;;;5.53;1.50;;;14.70;99.90;;;;;;5075139;28;20128;-68
2022/05/15 04:41:44;;;;;;;3.20;1.20;;;15.00;99.90;;;;;;5075151;28;20052;-68
2022/05/15 04:44:10;;;;;;;2.60;1.13;;;14.90;99.90;;;;;;5074381;28;20047;-68
2022/05/15 04:46:37;;;;;;;2.75;1.23;;;14.90;99.90;;;;;;5074821;28;20041;-68
2022/05/15 04:49:03;;;;;;;2.38;1.30;;;14.90;99.90;;;;;;5074613;28;20492;-68
2022/05/15 04:51:28;;;;;;;3.28;1.45;;;14.90;99.90;;;;;;5074657;28;20055;-68
2022/05/15 04:53:55;;;;;;;3.58;1.27;;;14.70;99.90;;;;;;5074743;28;20399;-68
2022/05/15 04:56:21;;;;;;;7.05;1.90;;;14.70;99.90;;;;;;5074477;28;20040;-68
2022/05/15 04:58:47;;;;;;;3.83;1.55;;;14.50;99.90;;;;;;5074588;28;20040;-68
2022/05/15 05:01:13;;;;;;;3.70;1.85;;;14.40;99.90;;;;;;5074647;28;20057;-68
2022/05/15 05:03:39;;;;;;;5.15;1.58;;;14.40;99.90;;;;;;5074536;28;20067;-68
2022/05/15 05:06:06;;;;;;;3.58;1.45;;;14.40;99.90;;;;;;5074521;28;20135;-67
2022/05/15 05:08:31;;;;;;;3.38;1.38;;;14.50;99.90;;;;;;5074504;28;20123;-68
2022/05/15 05:10:57;;;;;;;2.75;1.23;;;14.70;99.90;;;;;;5074381;28;20127;-68
2022/05/15 05:13:23;;;;;;;5.45;2.03;;;14.90;99.90;;;;;;5074335;28;20134;-68
2022/05/15 05:15:50;;;;;;;3.30;1.55;;;15.10;99.90;;;;;;5074031;28;20044;-68
2022/05/15 05:18:17;;;;;;;4.07;1.60;;;15.30;99.90;;;;;;5074321;28;20040;-68
2022/05/15 05:20:44;;;;;;;7.07;1.60;;;15.40;99.90;;;;;;5074251;28;20044;-68
2022/05/15 05:23:11;;;;;;;6.93;2.17;;;15.60;99.90;;;;;;5072882;28;20627;-68
2022/05/15 05:25:36;;;;;;;4.70;1.50;;;15.70;99.90;;;;;;5074079;28;20045;-68
2022/05/15 05:28:03;;;;;;;6.30;2.08;;;15.80;99.90;;;;;;5074113;28;20090;-68
2022/05/15 05:30:29;;;;;;;3.67;1.60;;;16.00;99.90;;;;;;5074005;28;20052;-68
2022/05/15 05:32:55;;;;;;;6.13;1.50;;;16.20;99.90;;;;;;5072776;28;20047;-68
2022/05/15 05:35:22;;;;;;;5.47;1.95;;;16.50;99.90;;;;;;5073747;28;20078;-68
2022/05/15 05:37:48;;;;;;;4.05;1.65;;;16.90;99.90;;;;;;5072520;28;20048;-68
2022/05/15 05:40:15;;;;;;;4.65;1.38;;;17.20;99.90;;;;;;5073723;28;20047;-68
2022/05/15 05:42:40;;;;;;;4.78;1.88;;;16.90;99.90;;;;;;5073862;28;20092;-68
2022/05/15 05:45:07;;;;;;;6.07;1.73;;;16.80;99.90;;;;;;5073865;28;20040;-68
2022/05/15 05:47:34;;;;;;;5.82;1.58;;;17.00;99.90;;;;;;5073682;28;20036;-68
2022/05/15 05:50:00;;;;;;;6.18;1.50;;;17.10;99.90;;;;;;5073549;28;20037;-68
2022/05/15 05:52:26;;;;;;;3.53;1.70;;;17.30;99.90;;;;;;5070173;28;20056;-68
2022/05/15 05:54:52;;;;;;;4.20;1.67;;;17.60;99.90;;;;;;5071124;28;20044;-68
2022/05/15 05:57:19;;;;;;;8.32;2.38;;;18.10;99.90;;;;;;5072559;28;20046;-68
2022/05/15 05:59:45;;;;;;;9.40;1.90;;;18.60;99.90;;;;;;5073233;28;20055;-68
2022/05/15 06:02:10;;;;;;;8.15;2.38;;;18.90;99.90;;;;;;5072764;28;20036;-68
2022/05/15 06:04:40;;;;;;;3.78;1.55;;;18.90;99.90;;;;;;5073147;28;20043;-68
2022/05/15 06:07:07;;;;;;;6.97;1.75;;;18.90;99.90;;;;;;5073064;28;20052;-68
2022/05/15 06:09:33;;;;;;;3.35;1.48;;;19.00;99.90;;;;;;5073042;28;20036;-68
2022/05/15 06:11:59;;;;;;;2.78;1.55;;;19.00;99.90;;;;;;5072831;28;20127;-68
2022/05/15 06:14:25;;;;;;;4.72;1.60;;;19.00;99.90;;;;;;5072922;28;20040;-68
2022/05/15 06:16:51;;;;;;;4.95;1.80;;;19.20;99.90;;;;;;5072923;28;20040;-68
2022/05/15 06:19:17;;;;;;;3.70;1.40;;;19.10;99.90;;;;;;5073322;28;20032;-68
2022/05/15 06:21:44;;;;;;;3.85;1.45;;;19.00;99.90;;;;;;5073354;28;20045;-68
2022/05/15 06:24:09;;;;;;;4.13;1.55;;;19.10;99.90;;;;;;5073253;28;20044;-68
2022/05/15 06:26:35;;;;;;;5.97;1.42;;;19.30;99.90;;;;;;5073196;28;20621;-68
2022/05/15 06:29:01;;;;;;;6.50;2.13;;;19.30;99.90;;;;;;5073046;28;20033;-69
2022/05/15 06:31:26;;;;;;;4.65;1.35;;;19.50;99.90;;;;;;5072902;28;20056;-69
2022/05/15 06:33:52;;;;;;;7.35;1.65;;;19.60;99.90;;;;;;5073194;28;20395;-68
2022/05/15 06:36:18;;;;;;;4.60;1.70;;;19.50;99.90;;;;;;5073177;28;20074;-69
2022/05/15 06:38:44;;;;;;;3.85;1.40;;;19.50;99.90;;;;;;5072960;28;20060;-69
2022/05/15 06:41:10;;;;;;;4.43;2.15;;;19.70;99.90;;;;;;5073058;28;20032;-68
2022/05/15 06:43:36;;;;;;;12.52;1.50;;;19.60;99.90;;;;;;5073064;28;20059;-69
2022/05/15 06:46:03;;;;;;;2.28;1.40;;;20.00;99.90;;;;;;5079071;28;20872;-69
2022/05/15 06:48:29;;;;;;;3.92;1.63;;;20.10;99.90;;;;;;5093152;28;20056;-69
2022/05/15 06:50:55;;;;;;;4.63;1.48;;;20.10;99.90;;;;;;5092982;28;20038;-69
2022/05/15 06:53:21;;;;;;;5.10;1.55;;;20.30;99.90;;;;;;5093081;28;20406;-69
2022/05/15 06:58:34;;;;;;;4.07;1.85;;;20.50;99.90;;;;;;5093050;28;20046;-69
2022/05/15 07:01:00;;;;;;;4.95;2.13;;;20.80;99.90;;;;;;5093092;28;20093;-69
2022/05/15 07:03:25;;;;;;;3.63;2.65;;;20.80;99.90;;;;;;5093016;28;20043;-68
2022/05/15 07:05:51;;;;;;;4.95;2.50;;;21.00;99.90;;;;;;5092991;28;20075;-69
2022/05/15 07:08:17;;;;;;;9.93;3.00;;;21.30;99.90;;;;;;5092770;28;20028;-69
2022/05/15 07:10:43;;;;;;;7.75;3.05;;;21.50;99.90;;;;;;5089510;28;20464;-68
2022/05/15 07:13:09;;;;;;;7.55;2.83;;;21.40;99.90;;;;;;5073516;28;20052;-69
2022/05/15 07:15:37;;;;;;;11.82;3.20;;;21.60;99.90;;;;;;5076587;28;20511;-69
2022/05/15 07:18:04;;;;;;;7.50;2.97;;;21.60;99.90;;;;;;5076570;28;20060;-69
2022/05/15 07:20:30;;;;;;;7.57;2.97;;;21.60;99.90;;;;;;5076546;28;20486;-70
2022/05/15 07:22:56;;;;;;;7.93;3.17;;;21.90;99.90;;;;;;5075887;28;20044;-69
2022/05/15 07:25:22;;;;;;;8.52;2.97;;;21.80;98.80;;;;;;5076055;28;20047;-69
2022/05/15 07:27:48;;;;;;;7.43;3.63;;;22.00;99.90;;;;;;5075750;28;20044;-69
2022/05/15 07:30:15;;;;;;;7.18;3.80;;;21.90;99.90;;;;;;5076130;28;20028;-70
2022/05/15 07:32:41;;;;;;;7.03;3.58;;;21.70;99.10;;;;;;5076022;28;20107;-70
2022/05/15 07:35:07;;;;;;;8.43;3.50;;;21.60;99.40;;;;;;5076055;28;20651;-70
2022/05/15 07:37:33;;;;;;;9.75;3.28;;;21.80;99.90;;;;;;5076060;28;20511;-70
2022/05/15 07:39:59;;;;;;;9.07;3.15;;;21.90;99.80;;;;;;5076200;28;20032;-70
2022/05/15 07:42:25;;;;;;;8.80;4.03;;;21.90;99.40;;;;;;5076168;28;20533;-70
2022/05/15 07:44:54;;;;;;;13.90;3.70;;;21.70;99.80;;;;;;5076166;28;20123;-70
2022/05/15 07:47:20;;;;;;;7.30;3.40;;;21.90;99.90;;;;;;5076091;28;20039;-69
2022/05/15 07:49:45;;;;;;;9.75;4.03;;;22.00;99.90;;;;;;5075624;28;20044;-69
2022/05/15 07:52:12;;;;;;;9.35;3.67;;;22.10;99.90;;;;;;5075548;28;20052;-70
2022/05/15 07:54:37;;;;;;;7.10;4.10;;;21.90;99.70;;;;;;5075835;28;20479;-70
2022/05/15 07:57:05;;;;;;;8.32;3.97;;;21.60;99.90;;;;;;5075973;28;20072;-69
2022/05/15 07:59:31;;;;;;;7.40;4.32;;;21.50;99.90;;;;;;5075577;28;20400;-69
2022/05/15 08:01:58;;;;;;;5.22;3.65;;;21.20;99.90;;;;;;5075505;28;20041;-70
2022/05/15 08:04:23;;;;;;;7.80;4.45;;;21.30;99.90;;;;;;5075624;28;20047;-69
2022/05/15 08:09:34;;;;;;;9.93;4.25;;;21.70;99.90;;;;;;5075610;28;20403;-70
2022/05/15 08:11:59;;;;;;;7.75;4.43;;;21.90;99.90;;;;;;5075480;28;20049;-69
2022/05/15 08:14:25;;;;;;;7.72;4.65;;;22.30;99.90;;;;;;5075266;28;20377;-70
2022/05/15 08:16:51;;;;;;;6.25;3.97;;;22.40;99.80;;;;;;5075296;28;20586;-70
2022/05/15 08:24:45;;;;;;;6.25;3.92;;;22.20;99.90;;;;;;5076240;28;20043;-72
2022/05/15 08:27:11;;;;;;;8.75;4.00;;;22.70;99.90;;;;;;5095625;28;20067;-70
2022/05/15 08:29:38;;;;;;;10.23;4.85;;;23.10;99.90;;;;;;5093019;28;20035;-70
2022/05/15 08:32:05;;;;;;;7.22;4.25;;;22.90;99.90;;;;;;5084938;28;20514;-70
2022/05/15 08:34:31;;;;;;;9.50;4.57;;;22.70;99.90;;;;;;5095834;28;20054;-70
2022/05/15 08:36:57;;;;;;;8.85;5.20;;;23.00;99.90;;;;;;5095558;28;20051;-70
2022/05/15 08:39:23;;;;;;;9.80;5.05;;;23.30;99.90;;;;;;5095366;28;20032;-70
2022/05/15 08:42:00;;;;;;;9.77;5.00;;;23.10;99.90;;;;;;5070319;28;20505;-70
2022/05/15 08:44:33;;;;;;;10.85;5.72;;;23.60;99.90;;;;;;5052761;28;20044;-70
2022/05/15 08:47:09;;;;;;;6.63;5.03;;;23.90;99.90;;;;;;5052599;28;20131;-70
2022/05/15 08:49:39;;;;;;;9.02;5.30;;;23.80;99.90;;;;;;5052788;28;20048;-69
2022/05/15 08:52:10;;;;;;;10.07;4.88;;;23.70;99.90;;;;;;5052670;28;20056;-69
2022/05/15 08:55:21;;;;;;;11.07;5.45;;;24.00;99.90;;;;;;5052344;28;20124;-68
2022/05/15 08:57:56;;;;;;;30.95;6.75;;;23.60;99.90;;;;;;5044394;28;20066;-71
2022/05/15 09:00:31;;;;;;;11.43;6.20;;;24.10;99.90;;;;;;5077300;28;20036;-71
2022/05/15 09:03:16;;;;;;;10.13;5.22;;;23.60;99.90;;;;;;5081049;28;20039;-70
2022/05/15 09:06:12;;;;;;;11.50;5.70;;;23.80;99.90;;;;;;5092860;28;20100;-70
2022/05/15 09:09:01;;;;;;;9.68;5.70;;;23.90;99.90;;;;;;5075651;28;20089;-69
2022/05/15 09:11:36;;;;;;;7.63;5.45;;;23.70;99.90;;;;;;5083269;28;20075;-71
2022/05/15 09:14:21;;;;;;;12.98;5.72;;;23.50;99.90;;;;;;5084331;28;20506;-71
2022/05/15 09:16:57;;;;;;;10.15;6.15;;;23.40;99.90;;;;;;5072235;28;20040;-72
2022/05/15 09:19:25;;;;;;;10.77;5.95;;;23.70;99.90;;;;;;5071662;28;20044;-72
2022/05/15 09:21:55;;;;;;;9.80;6.07;;;23.40;99.90;;;;;;5071519;28;20032;-72
2022/05/15 09:24:27;;;;;;;;;;;23.40;99.90;;;;;;5071004;28;20048;-71
2022/05/15 09:26:53;;;;;;;11.95;6.60;;;23.40;99.90;;;;;;5071884;28;19969;-72
2022/05/15 09:29:26;;;;;;;14.02;6.47;;;23.40;99.90;;;;;;5071546;28;20036;-72
2022/05/15 09:31:52;;;;;;;9.15;6.32;;;23.50;99.90;;;;;;5073480;28;20164;-72
2022/05/15 09:34:26;;;;;;;10.00;6.15;;;23.70;99.90;;;;;;5072262;28;20555;-71
2022/05/15 09:38:26;;;;;;;15.77;6.72;;;23.60;99.90;;;;;;5071107;28;20583;-71
2022/05/15 09:40:05;;;;;;;11.07;5.88;;;23.50;99.90;;;;;;5071997;28;20081;-72
2022/05/15 09:45:21;;;;;;;11.18;5.95;;;24.00;99.90;;;;;;5077729;28;20125;-72
2022/05/15 09:47:52;;;;;;;14.48;5.80;;;24.30;99.90;;;;;;5071783;28;20028;-71
2022/05/15 09:50:37;;;;;;;9.23;6.20;;;;;;;;;;5076723;28;20040;-72
2022/05/15 09:53:14;;;;;;;8.25;5.93;;;24.70;99.90;;;;;;5051548;28;20096;-72
2022/05/15 09:55:40;;;;;;;10.25;6.50;;;24.30;99.90;;;;;;5053135;28;20045;-72
2022/05/15 09:58:19;;;;;;;15.15;5.70;;;24.60;99.60;;;;;;5050753;28;20190;-71
2022/05/15 10:00:45;;;;;;;11.60;5.45;;;24.50;99.80;;;;;;5051543;28;20036;-71
2022/05/15 10:03:23;;;;;;;7.90;5.43;;;24.30;99.40;;;;;;5050830;28;20041;-72
2022/05/15 10:06:06;;;;;;;9.32;5.45;;;24.60;99.60;;;;;;5051113;28;20036;-72
2022/05/15 10:08:32;;;;;;;8.98;5.28;;;24.60;99.30;;;;;;5051495;28;20045;-72
2022/05/15 10:11:02;;;;;;;8.13;5.10;;;24.00;99.50;;;;;;5051307;28;20044;-71
2022/05/15 10:13:40;;;;;;;8.07;5.45;;;23.70;99.10;;;;;;5050130;28;20094;-72
2022/05/15 10:16:41;;;;;;;10.25;4.65;;;23.50;99.90;;;;;;5050779;28;20052;-72
2022/05/15 10:19:48;;;;;;;10.68;5.03;;;23.30;99.90;;;;;;5043474;28;20044;-73
2022/05/15 10:22:57;;;;;;;8.98;5.70;;;23.60;99.70;;;;;;5050213;28;20462;-72
2022/05/15 10:25:40;;;;;;;10.40;6.30;;;24.10;99.60;;;;;;5050282;28;20041;-73
2022/05/15 10:28:09;;;;;;;10.18;5.75;;;24.60;99.90;;;;;;5050307;28;20045;-72
2022/05/15 10:30:41;;;;;;;11.70;6.15;;;24.80;99.10;;;;;;5050467;28;20043;-72
2022/05/15 10:33:16;;;;;;;10.57;5.30;;;24.80;99.80;;;;;;5050077;28;20053;-72
2022/05/15 10:36:11;;;;;;;9.15;5.05;;;24.80;99.30;;;;;;5050476;28;20049;-72
2022/05/15 10:38:47;;;;;;;9.98;5.80;;;24.80;98.80;;;;;;5050432;28;20036;-72
2022/05/15 10:42:03;;;;;;;7.57;4.95;;;25.00;98.90;;;;;;5050498;28;20508;-70
2022/05/15 10:44:33;;;;;;;9.07;5.03;;;25.20;98.60;;;;;;5024427;28;20047;-72
2022/05/15 10:47:08;;;;;;;6.28;5.07;;;25.50;98.90;;;;;;5052124;28;20037;-72
2022/05/15 10:49:58;;;;;;;7.53;5.40;;;25.20;97.80;;;;;;5050946;28;20037;-72
2022/05/15 10:52:42;;;;;;;9.40;5.03;;;25.10;98.20;;;;;;5050274;28;20515;-71
2022/05/15 10:58:17;;;;;;;7.72;4.68;;;25.10;97.90;;;;;;5049811;28;20147;-71
2022/05/15 11:00:55;;;;;;;10.32;5.20;;;25.60;98.70;;;;;;5050856;28;20116;-69
2022/05/15 11:03:27;;;;;;;8.18;5.40;;;25.80;98.10;;;;;;5050524;28;20057;-71
2022/05/15 11:06:07;;;;;;;8.40;6.18;;;25.30;97.40;;;;;;5051661;28;20091;-71
2022/05/15 11:08:52;;;;;;;10.02;5.47;;;25.40;97.70;;;;;;5052299;28;20045;-72
2022/05/15 11:11:38;;;;;;;8.52;4.88;;;25.80;98.20;;;;;;5052024;28;20071;-72
2022/05/15 11:14:22;;;;;;;7.05;5.43;;;26.10;98.20;;;;;;5040163;28;20044;-70
2022/05/15 11:16:56;;;;;;;12.35;5.90;;;26.10;98.50;;;;;;5053176;28;20086;-72
2022/05/15 11:19:37;;;;;;;7.47;5.05;;;26.00;97.10;;;;;;5102886;28;20044;-71
2022/05/15 11:22:28;;;;;;;9.60;5.65;;;26.20;97.80;;;;;;5070194;28;20049;-71
2022/05/15 11:24:59;;;;;;;;;;;26.30;98.50;;;;;;5070863;28;20036;-72
2022/05/15 11:27:37;;;;;;;8.77;5.22;;;26.20;97.50;;;;;;5072327;28;20359;-71
2022/05/15 11:30:31;;;;;;;8.68;4.53;;;26.30;97.60;;;;;;5071603;28;20064;-72
2022/05/15 11:33:08;;;;;;;8.18;4.78;;;26.40;96.50;;;;;;5069301;28;20111;-72
2022/05/15 11:36:00;;;;;;;14.93;5.70;;;25.70;96.80;;;;;;5070238;28;20044;-72
2022/05/15 11:38:43;;;;;;;6.50;4.97;;;25.60;96.80;;;;;;5071474;28;20040;-71
2022/05/15 11:41:34;;;;;;;10.85;4.88;;;25.80;96.90;;;;;;5070653;28;20043;-71
2022/05/15 11:44:03;;;;;;;11.35;5.30;;;25.90;97.30;;;;;;5069730;28;20068;-71
2022/05/15 11:46:47;;;;;;;15.90;5.55;;;25.80;97.50;;;;;;5071343;28;20048;-71
2022/05/15 11:49:25;;;;;;;6.15;4.18;;;25.90;97.00;;;;;;5070024;28;20037;-70
2022/05/15 11:52:16;;;;;;;9.50;5.00;;;26.00;96.60;;;;;;5071881;28;20052;-72
2022/05/15 11:54:53;;;;;;;10.07;5.53;;;25.70;97.10;;;;;;5070599;28;20507;-71
2022/05/15 11:57:42;;;;;;;10.55;5.65;;;25.40;96.90;;;;;;5069741;28;20044;-71
2022/05/15 12:00:20;;;;;;;11.93;6.10;;;25.10;97.20;;;;;;5071750;28;20068;-72
2022/05/15 12:02:49;;;;;;;8.40;5.22;;;25.00;97.80;;;;;;5074038;28;20094;-71
2022/05/15 12:05:30;;;;;;;13.50;5.72;;;25.00;97.20;;;;;;5053884;28;20170;-71
2022/05/15 12:08:07;;;;;;;10.35;5.72;;;25.70;98.50;;;;;;5055383;28;20041;-70
2022/05/15 12:10:33;;;;;;;10.35;5.43;;;26.20;98.00;;;;;;5074364;28;20115;-70
2022/05/15 12:13:28;;;;;;;9.18;4.97;;;26.50;97.10;;;;;;5075326;28;20135;-70
2022/05/15 12:16:15;;;;;;;19.38;5.93;;;26.50;95.70;;;;;;5071696;28;20032;-70
2022/05/15 12:18:43;;;;;;;10.77;5.53;;;26.60;96.70;;;;;;5073051;28;20054;-71
2022/05/15 12:21:13;;;;;;;8.40;5.35;;;26.60;95.70;;;;;;5073727;28;20041;-70
2022/05/15 12:26:46;;;;;;;8.87;4.83;;;27.00;94.50;;;;;;5066152;28;20454;-68
2022/05/15 12:29:41;;;;;;;16.58;5.50;;;27.00;94.30;;;;;;5057223;28;20048;-68
2022/05/15 12:32:14;;;;;;;10.18;4.93;;;26.70;94.30;;;;;;5058747;28;20044;-70
2022/05/15 12:34:46;;;;;;;8.35;4.53;;;27.00;94.00;;;;;;5064443;28;20044;-71
2022/05/15 12:37:30;;;;;;;8.60;5.00;;;26.60;94.00;;;;;;5051661;28;20035;-71
2022/05/15 12:40:00;;;;;;;10.10;5.20;;;27.10;94.80;;;;;;5052793;28;20052;-69
2022/05/15 12:42:37;;;;;;;10.55;4.97;;;27.20;94.50;;;;;;5068452;28;20086;-69
2022/05/15 12:45:15;;;;;;;9.02;5.30;;;27.30;94.50;;;;;;5072883;28;20485;-69
2022/05/15 12:47:41;;;;;;;8.45;5.30;;;27.40;93.70;;;;;;5072123;28;20147;-68
2022/05/15 12:50:10;;;;;;;11.95;5.05;;;27.00;92.90;;;;;;5071388;28;20055;-69
2022/05/15 12:52:37;;;;;;;13.10;4.82;;;27.00;93.70;;;;;;5067715;28;20056;-71
2022/05/15 12:55:11;;;;;;;15.45;4.75;;;27.00;93.60;;;;;;5070406;28;20044;-70
2022/05/15 12:57:51;;;;;;;6.53;4.07;;;27.30;93.60;;;;;;5071849;28;20055;-70
2022/05/15 13:00:21;;;;;;;11.30;4.78;;;27.10;92.70;;;;;;5072441;28;20124;-69
2022/05/15 13:02:48;;;;;;;9.70;4.30;;;27.10;92.30;;;;;;5071989;28;20051;-70
2022/05/15 13:05:32;;;;;;;9.88;4.07;;;27.20;91.70;;;;;;5071084;28;20037;-69
2022/05/15 13:08:01;;;;;;;10.38;4.80;;;26.90;92.10;;;;;;5072290;28;20101;-70
2022/05/15 13:10:28;;;;;;;7.63;4.13;;;27.00;91.60;;;;;;5070611;28;20531;-71
2022/05/15 13:13:03;;;;;;;7.75;3.97;;;27.00;91.10;;;;;;5072187;28;20408;-72
2022/05/15 13:15:31;;;;;;;9.98;5.00;;;27.10;92.00;;;;;;5073496;28;20041;-70
2022/05/15 13:18:01;;;;;;;10.10;4.05;;;27.40;92.90;;;;;;5073834;28;20055;-71
2022/05/15 13:20:30;;;;;;;9.85;4.07;;;27.40;91.10;;;;;;5072265;28;20601;-71
2022/05/15 13:22:59;;;;;;;13.70;4.43;;;27.70;91.50;;;;;;5071630;28;20177;-71
2022/05/15 13:25:36;;;;;;;16.45;4.40;;;27.10;91.30;;;;;;5071553;28;20044;-71